Vinton, Vinton Veterans Memorial Airpark (KVTI)

NameVinton Veterans Memorial Airpark
CityVinton
CountryUnited States
ICAOKVTI
IATA
Altitude257 m
CoordinatesGoogle Map
Live Air TrafficLiveATC.net
METARKVTI 231615Z AUTO 10007KT 10SM CLR 25/16 A3020 RMK AO2 T02450160
2019-08-23 16:15:00 Wind: East (100°) 3.6 m/s - Visibility: 16093.4 m - Temperature: 25 °C - Dew point: 16 °C - Humidity: 57.5% - Pressure: 1022.69 hPa
Statistics

The table below shows the detailed information of all flights to/from Vinton, Vinton Veterans Memorial Airpark (KVTI).